createdAt,value
2019-05-07T00:00:27.313Z,99.99
2019-05-07T00:01:28.569Z,99.99
2019-05-07T00:02:28.136Z,99.99
2019-05-07T00:03:27.542Z,99.99
2019-05-07T00:04:27.994Z,99.96
2019-05-07T00:05:28.159Z,99.99
2019-05-07T00:06:28.871Z,99.99
2019-05-07T00:07:29.287Z,99.99
2019-05-07T00:08:31.963Z,99.99
2019-05-07T00:09:32.256Z,99.99
2019-05-07T00:10:33.082Z,99.99
2019-05-07T00:11:33.077Z,99.99
2019-05-07T00:12:32.569Z,99.96
2019-05-07T00:13:33.391Z,99.99
2019-05-07T00:14:34.491Z,99.99
2019-05-07T00:17:37.559Z,99.99
2019-05-07T00:18:37.956Z,99.99
2019-05-07T00:19:38.062Z,99.99
2019-05-07T00:20:38.476Z,99.99
2019-05-07T00:21:38.583Z,99.99
2019-05-07T00:22:38.688Z,99.99
2019-05-07T00:23:39.072Z,99.99
2019-05-07T00:24:39.757Z,99.99
2019-05-07T00:25:41.601Z,99.99
2019-05-07T00:26:40.096Z,99.99
2019-05-07T00:27:42.483Z,99.99
2019-05-07T00:28:42.614Z,99.99
2019-05-07T00:29:42.833Z,99.99
2019-05-07T00:30:42.418Z,99.99
2019-05-07T00:31:42.186Z,99.99
2019-05-07T00:32:42.493Z,99.99
2019-05-07T00:33:43.458Z,99.99
2019-05-07T00:34:42.877Z,99.99
2019-05-07T00:35:43.881Z,99.99
2019-05-07T00:36:43.989Z,99.99
2019-05-07T00:37:44.654Z,99.99
2019-05-07T00:38:47.947Z,99.99
2019-05-07T00:39:47.685Z,99.99
2019-05-07T00:40:47.856Z,99.99
2019-05-07T00:41:48.350Z,99.99
2019-05-07T00:42:48.752Z,99.99
2019-05-07T00:43:48.868Z,99.99
2019-05-07T00:44:49.278Z,99.99
2019-05-07T00:45:49.409Z,99.99
2019-05-07T00:46:49.998Z,99.99
2019-05-07T00:47:52.069Z,99.99
2019-05-07T00:48:52.754Z,99.99
2019-05-07T00:49:52.314Z,99.99
2019-05-07T00:50:52.950Z,99.99
2019-05-07T00:51:53.059Z,99.99
2019-05-07T00:52:53.475Z,99.99
2019-05-07T00:53:53.878Z,99.99
2019-05-07T00:54:53.992Z,99.99
2019-05-07T00:55:54.980Z,99.99
2019-05-07T00:56:57.379Z,99.99
2019-05-07T00:57:58.179Z,99.99
2019-05-07T00:58:58.297Z,99.99
2019-05-07T00:59:58.143Z,99.99
2019-05-07T01:00:58.779Z,99.99
2019-05-07T01:01:58.889Z,99.99
2019-05-07T01:02:59.302Z,99.99
2019-05-07T01:03:59.425Z,99.99
2019-05-07T01:05:00.101Z,99.99
2019-05-07T01:06:02.042Z,99.99
2019-05-07T01:07:02.705Z,99.99
2019-05-07T01:08:02.527Z,99.99
2019-05-07T01:09:03.126Z,99.99
2019-05-07T01:10:02.652Z,99.99
2019-05-07T01:11:03.042Z,99.99
2019-05-07T01:12:03.441Z,99.99
2019-05-07T01:13:04.634Z,99.99
2019-05-07T01:14:04.504Z,99.99
2019-05-07T01:15:05.051Z,99.99
2019-05-07T01:16:08.046Z,99.99
2019-05-07T01:17:07.672Z,99.99
2019-05-07T01:18:08.450Z,99.99
2019-05-07T01:19:08.097Z,99.99
2019-05-07T01:20:08.514Z,99.99
2019-05-07T01:21:08.915Z,99.99
2019-05-07T01:22:09.030Z,99.99
2019-05-07T01:23:09.414Z,99.99
2019-05-07T01:24:12.301Z,99.99
2019-05-07T01:25:12.813Z,99.99
2019-05-07T01:26:12.398Z,99.99
2019-05-07T01:27:12.874Z,99.99
2019-05-07T01:28:13.402Z,99.99
2019-05-07T01:29:13.321Z,99.99
2019-05-07T01:30:14.023Z,99.99
2019-05-07T01:31:14.134Z,99.99
2019-05-07T01:32:14.248Z,99.99
2019-05-07T01:33:14.652Z,99.99
2019-05-07T01:34:17.324Z,99.99
2019-05-07T01:35:15.474Z,99.99
2019-05-07T01:36:18.446Z,99.99
2019-05-07T01:37:17.678Z,99.99
2019-05-07T01:38:17.590Z,99.99
2019-05-07T01:39:18.375Z,99.99
2019-05-07T01:40:18.489Z,99.99
2019-05-07T01:41:18.875Z,99.99
2019-05-07T01:42:18.984Z,99.99
2019-05-07T01:43:19.388Z,99.99
2019-05-07T01:44:21.893Z,99.99
2019-05-07T01:45:22.002Z,99.99
2019-05-07T01:46:24.373Z,99.99
2019-05-07T01:47:23.445Z,99.99
2019-05-07T01:48:22.964Z,99.99
2019-05-07T01:49:24.005Z,99.99
2019-05-07T01:50:23.268Z,99.99
2019-05-07T01:51:23.949Z,99.99
2019-05-07T01:52:24.060Z,99.99
2019-05-07T01:53:24.171Z,99.99
2019-05-07T01:54:24.577Z,99.99
2019-05-07T01:55:24.555Z,99.99
2019-05-07T01:56:24.964Z,99.99
2019-05-07T01:57:25.121Z,99.99
2019-05-07T01:58:27.420Z,99.99
2019-05-07T01:59:27.629Z,99.99
2019-05-07T02:00:28.037Z,99.99
2019-05-07T02:01:27.725Z,99.99
2019-05-07T02:02:28.229Z,99.99
2019-05-07T02:03:28.359Z,99.99
2019-05-07T02:04:27.698Z,99.99
2019-05-07T02:05:28.450Z,99.99
2019-05-07T02:06:29.161Z,99.99
2019-05-07T02:07:29.851Z,99.99
2019-05-07T02:08:30.236Z,99.99
2019-05-07T02:09:31.293Z,99.99
2019-05-07T02:10:32.204Z,99.99
2019-05-07T02:11:32.752Z,99.99
2019-05-07T02:12:32.967Z,99.99
2019-05-07T02:13:33.831Z,99.99
2019-05-07T02:14:33.736Z,99.99
2019-05-07T02:15:34.147Z,99.99
2019-05-07T02:16:34.589Z,99.99
2019-05-07T02:17:37.722Z,99.99
2019-05-07T02:18:37.891Z,99.82
2019-05-07T02:19:38.179Z,99.82
2019-05-07T02:20:37.618Z,99.15
2019-05-07T02:21:38.573Z,98.58
2019-05-07T02:22:38.977Z,99.34
2019-05-07T02:23:39.377Z,99.34
2019-05-07T02:24:40.101Z,98.68
2019-05-07T02:25:41.956Z,99.06
2019-05-07T02:26:42.658Z,99.06
2019-05-07T02:27:42.027Z,99.15
2019-05-07T02:28:42.604Z,98.87
2019-05-07T02:29:43.485Z,99.99
2019-05-07T02:30:44.343Z,99.99
2019-05-07T02:31:44.314Z,99.72
2019-05-07T02:32:44.091Z,99.25
2019-05-07T02:33:44.788Z,99.82
2019-05-07T02:34:45.007Z,99.99
2019-05-07T02:35:45.430Z,99.99
2019-05-07T02:36:48.635Z,99.99
2019-05-07T02:37:56.692Z,99.91
2019-05-07T02:38:49.504Z,99.91
2019-05-07T02:39:49.674Z,99.15
2019-05-07T02:40:48.867Z,99.15
2019-05-07T02:41:49.632Z,99.06
2019-05-07T02:42:49.685Z,99.25
2019-05-07T02:43:49.560Z,99.72
2019-05-07T02:44:52.961Z,99.25
2019-05-07T02:45:53.494Z,98.21
2019-05-07T02:46:52.892Z,98.21
2019-05-07T02:47:53.109Z,98.96
2019-05-07T02:48:54.090Z,99.15
2019-05-07T02:49:54.646Z,98.39
2019-05-07T02:50:59.313Z,98.11
2019-05-07T02:51:58.455Z,97.4
2019-05-07T02:52:59.047Z,99.01
2019-05-07T02:53:59.301Z,99.01
2019-05-07T02:54:59.271Z,98.16
2019-05-07T02:55:58.404Z,97.78
2019-05-07T02:56:58.833Z,98.44
2019-05-07T02:58:03.111Z,97.78
2019-05-07T02:59:00.210Z,97.59
2019-05-07T03:00:04.395Z,97.49
2019-05-07T03:01:04.675Z,97.97
2019-05-07T03:02:03.535Z,98.06
2019-05-07T03:03:04.281Z,99.1
2019-05-07T03:04:04.717Z,99.01
2019-05-07T03:05:05.365Z,98.35
2019-05-07T03:06:08.318Z,97.87
2019-05-07T03:07:09.239Z,97.49
2019-05-07T03:08:08.922Z,96.73
2019-05-07T03:09:08.618Z,96.73
2019-05-07T03:10:09.020Z,97.4
2019-05-07T03:11:08.997Z,96.07
2019-05-07T03:12:12.900Z,95.98
2019-05-07T03:13:09.751Z,95.98
2019-05-07T03:14:10.072Z,95.79
2019-05-07T03:15:13.179Z,95.5
2019-05-07T03:16:13.021Z,95.69
2019-05-07T03:17:13.236Z,95.12
2019-05-07T03:18:13.751Z,95.69
2019-05-07T03:19:13.589Z,95.88
2019-05-07T03:20:13.941Z,95.5
2019-05-07T03:21:13.652Z,95.88
2019-05-07T03:22:14.151Z,95.41
2019-05-07T03:23:14.157Z,95.41
2019-05-07T03:24:14.553Z,96.36
2019-05-07T03:25:15.279Z,97.3
2019-05-07T03:26:18.775Z,97.3
2019-05-07T03:27:19.213Z,97.78
2019-05-07T03:28:18.897Z,97.3
2019-05-07T03:29:18.332Z,97.49
2019-05-07T03:30:25.927Z,98.44
2019-05-07T03:31:25.972Z,99.2
2019-05-07T03:32:27.294Z,99.77
2019-05-07T03:33:26.071Z,98.44
2019-05-07T03:34:25.484Z,99.1
2019-05-07T03:35:26.968Z,99.67
2019-05-07T03:36:26.066Z,99.67
2019-05-07T03:37:23.359Z,98.63
2019-05-07T03:38:22.955Z,99.77
2019-05-07T03:39:24.127Z,99.96
2019-05-07T03:40:24.266Z,99.77
2019-05-07T03:41:27.928Z,99.01
2019-05-07T03:42:25.183Z,98.16
2019-05-07T03:43:28.163Z,97.49
2019-05-07T03:44:29.216Z,97.3
2019-05-07T03:45:28.681Z,98.44
2019-05-07T03:46:29.162Z,97.49
2019-05-07T03:47:29.258Z,96.78
2019-05-07T03:48:29.326Z,95.93
2019-05-07T03:49:29.023Z,97.06
2019-05-07T03:50:30.049Z,96.97
2019-05-07T03:51:32.770Z,96.69
2019-05-07T03:52:33.376Z,97.63
2019-05-07T03:53:33.774Z,97.63
2019-05-07T03:54:33.926Z,97.21
2019-05-07T03:55:33.298Z,97.21
2019-05-07T03:56:33.591Z,98.68
2019-05-07T03:57:33.889Z,98.01
2019-05-07T03:58:34.457Z,98.11
2019-05-07T03:59:34.559Z,98.3
2019-05-07T04:00:38.379Z,97.73
2019-05-07T04:01:39.007Z,97.54
2019-05-07T04:02:38.796Z,97.92
2019-05-07T04:03:39.578Z,98.25
2019-05-07T04:04:38.874Z,98.49
2019-05-07T04:05:39.639Z,98.77
2019-05-07T04:06:39.215Z,98.96
2019-05-07T04:07:42.701Z,98.2
2019-05-07T04:08:42.790Z,97.92
2019-05-07T04:09:43.449Z,97.87
2019-05-07T04:10:44.111Z,98.11
2019-05-07T04:11:43.379Z,99.62
2019-05-07T04:12:44.071Z,99.71
2019-05-07T04:13:44.517Z,99.62
2019-05-07T04:14:45.039Z,98.77
2019-05-07T04:15:49.063Z,99.33
2019-05-07T04:16:49.418Z,99.99
2019-05-07T04:17:48.614Z,99.81
2019-05-07T04:18:49.486Z,99.99
2019-05-07T04:19:49.442Z,99.99
2019-05-07T04:20:49.524Z,99.71
2019-05-07T04:21:49.432Z,99.99
2019-05-07T04:22:49.537Z,99.99
2019-05-07T04:23:50.246Z,99.99
2019-05-07T04:24:53.103Z,99.99
2019-05-07T04:25:52.938Z,99.99
2019-05-07T04:26:53.610Z,99.99
2019-05-07T04:27:52.839Z,99.99
2019-05-07T04:28:54.274Z,99.99
2019-05-07T04:29:54.002Z,99.99
2019-05-07T04:30:58.717Z,99.99
2019-05-07T04:31:58.930Z,99.99
2019-05-07T04:32:58.579Z,99.99
2019-05-07T04:33:58.926Z,99.99
2019-05-07T04:34:58.736Z,99.99
2019-05-07T04:35:59.062Z,99.99
2019-05-07T04:36:59.193Z,99.99
2019-05-07T04:38:03.198Z,99.99
2019-05-07T04:39:02.927Z,99.99
2019-05-07T04:40:03.098Z,99.99
2019-05-07T04:41:03.731Z,99.99
2019-05-07T04:42:03.518Z,99.99
2019-05-07T04:43:03.641Z,99.99
2019-05-07T04:44:04.354Z,99.99
2019-05-07T04:45:04.823Z,99.99
2019-05-07T04:46:08.643Z,99.99
2019-05-07T04:47:09.522Z,99.99
2019-05-07T04:48:08.396Z,99.99
2019-05-07T04:49:09.054Z,99.99
2019-05-07T04:50:09.129Z,99.99
2019-05-07T04:51:23.434Z,99.99
2019-05-07T04:52:24.153Z,99.99
2019-05-07T04:53:24.831Z,99.99
2019-05-07T04:54:28.814Z,99.99
2019-05-07T04:55:28.272Z,99.99
2019-05-07T04:56:29.199Z,99.99
2019-05-07T04:57:28.934Z,99.99
2019-05-07T04:58:33.725Z,99.99
2019-05-07T04:59:29.730Z,99.99
2019-05-07T05:00:30.213Z,99.99
2019-05-07T05:01:32.840Z,99.99
2019-05-07T05:02:32.477Z,99.99
2019-05-07T05:03:34.180Z,99.99
2019-05-07T05:04:38.952Z,99.99
2019-05-07T05:05:33.658Z,99.99
2019-05-07T05:06:34.375Z,99.99
2019-05-07T05:07:34.488Z,99.99
2019-05-07T05:08:37.981Z,99.99
2019-05-07T05:09:38.365Z,99.99
2019-05-07T05:10:39.122Z,99.99
2019-05-07T05:11:39.001Z,99.99
2019-05-07T05:12:38.259Z,99.99
2019-05-07T05:13:38.773Z,99.99
2019-05-07T05:14:39.515Z,99.99
2019-05-07T05:15:37.779Z,99.99
2019-05-07T05:16:38.268Z,99.99
2019-05-07T05:17:53.945Z,99.99
2019-05-07T05:18:39.555Z,99.99
2019-05-07T05:19:40.029Z,99.99
2019-05-07T05:20:42.135Z,99.99
2019-05-07T05:21:41.938Z,99.99
2019-05-07T05:22:42.471Z,99.99
2019-05-07T05:23:42.105Z,99.99
2019-05-07T05:24:42.790Z,99.99
2019-05-07T05:25:43.324Z,99.99
2019-05-07T05:26:43.751Z,99.99
2019-05-07T05:27:43.867Z,99.99
2019-05-07T05:28:44.571Z,99.99
2019-05-07T05:29:45.274Z,99.99
2019-05-07T05:30:47.742Z,99.99
2019-05-07T05:31:47.457Z,99.99
2019-05-07T05:32:47.715Z,99.99
2019-05-07T05:33:47.961Z,99.99
2019-05-07T05:34:48.367Z,99.99
2019-05-07T05:35:48.758Z,99.99
2019-05-07T05:36:48.868Z,99.99
2019-05-07T05:37:48.987Z,99.99
2019-05-07T05:38:49.102Z,99.99
2019-05-07T05:40:03.155Z,99.99
2019-05-07T05:40:52.018Z,99.99
2019-05-07T05:41:51.792Z,99.99
2019-05-07T05:42:52.440Z,99.99
2019-05-07T05:43:52.707Z,99.99
2019-05-07T05:44:52.557Z,99.99
2019-05-07T05:45:53.122Z,99.99
2019-05-07T05:46:53.569Z,99.99
2019-05-07T05:48:09.578Z,99.99
2019-05-07T05:48:54.309Z,99.99
2019-05-07T05:49:54.715Z,99.99
2019-05-07T05:50:54.990Z,99.99
2019-05-07T05:51:57.742Z,99.99
2019-05-07T05:52:57.283Z,99.99
2019-05-07T05:53:57.744Z,99.99
2019-05-07T05:54:58.148Z,99.99
2019-05-07T05:55:58.301Z,99.99
2019-05-07T05:56:58.721Z,99.99
2019-05-07T05:57:59.770Z,99.99
2019-05-07T05:59:02.613Z,99.99
2019-05-07T06:00:02.316Z,99.99
2019-05-07T06:01:02.622Z,99.99
2019-05-07T06:02:03.278Z,99.99
2019-05-07T06:03:02.637Z,99.99
2019-05-07T06:04:03.119Z,99.99
2019-05-07T06:05:04.531Z,99.99
2019-05-07T06:06:04.391Z,99.99
2019-05-07T06:07:16.677Z,99.99
2019-05-07T06:08:04.758Z,99.99
2019-05-07T06:09:07.189Z,99.99
2019-05-07T06:10:07.824Z,99.99
2019-05-07T06:11:07.812Z,99.99
2019-05-07T06:12:08.427Z,99.99
2019-05-07T06:13:09.114Z,99.99
2019-05-07T06:14:09.228Z,99.99
2019-05-07T06:15:09.759Z,99.99
2019-05-07T06:16:12.350Z,99.99
2019-05-07T06:17:12.915Z,99.99
2019-05-07T06:18:24.249Z,99.99
2019-05-07T06:19:13.287Z,99.99
2019-05-07T06:20:12.315Z,99.99
2019-05-07T06:21:12.938Z,99.99
2019-05-07T06:22:16.527Z,99.99
2019-05-07T06:23:13.811Z,99.99
2019-05-07T06:24:13.932Z,99.99
2019-05-07T06:25:14.971Z,99.99
2019-05-07T06:26:14.213Z,99.99
2019-05-07T06:27:14.340Z,99.99
2019-05-07T06:28:14.736Z,99.99
2019-05-07T06:29:19.857Z,99.99
2019-05-07T06:30:18.506Z,99.99
2019-05-07T06:31:18.242Z,99.99
2019-05-07T06:32:17.731Z,99.99
2019-05-07T06:33:17.776Z,99.99
2019-05-07T06:34:18.070Z,99.99
2019-05-07T06:35:19.450Z,99.99
2019-05-07T06:36:18.009Z,99.99
2019-05-07T06:37:18.418Z,99.99
2019-05-07T06:38:18.537Z,99.99
2019-05-07T06:39:18.942Z,99.99
2019-05-07T06:40:21.485Z,99.99
2019-05-07T06:41:22.482Z,99.99
2019-05-07T06:42:22.131Z,99.99
2019-05-07T06:43:21.799Z,99.99
2019-05-07T06:44:22.347Z,99.99
2019-05-07T06:45:22.726Z,99.99
2019-05-07T06:46:23.232Z,99.99
2019-05-07T06:47:23.707Z,99.99
2019-05-07T06:48:43.279Z,99.99
2019-05-07T06:49:24.224Z,99.99
2019-05-07T06:50:27.566Z,99.99
2019-05-07T06:51:27.652Z,99.99
2019-05-07T06:52:28.380Z,99.99
2019-05-07T06:53:27.567Z,99.99
2019-05-07T06:54:28.170Z,99.99
2019-05-07T06:55:28.483Z,99.99
2019-05-07T06:56:28.959Z,99.99
2019-05-07T06:57:29.628Z,99.99
2019-05-07T06:58:30.048Z,99.99
2019-05-07T06:59:34.148Z,99.99
2019-05-07T07:00:32.027Z,96.31
2019-05-07T07:01:32.241Z,93.89
2019-05-07T07:02:32.809Z,86.7
2019-05-07T07:03:32.812Z,80.36
2019-05-07T07:04:33.092Z,74.4
2019-05-07T07:05:33.161Z,66.38
2019-05-07T07:06:34.225Z,62.4
2019-05-07T07:07:41.871Z,58.45
2019-05-07T07:08:34.830Z,56.38
2019-05-07T07:09:38.368Z,56.12
2019-05-07T07:10:37.528Z,57.2
2019-05-07T07:11:37.729Z,56.43
2019-05-07T07:12:38.861Z,53.94
2019-05-07T07:13:39.047Z,52.8
2019-05-07T07:14:39.556Z,51.1
2019-05-07T07:15:42.483Z,50.89
2019-05-07T07:16:42.026Z,52.8
2019-05-07T07:17:41.992Z,53.85
2019-05-07T07:18:56.489Z,53.56
2019-05-07T07:19:43.144Z,54.43
2019-05-07T07:20:44.193Z,52.89
2019-05-07T07:21:43.955Z,51.84
2019-05-07T07:22:44.556Z,51.46
2019-05-07T07:23:44.761Z,50.89
2019-05-07T07:24:47.617Z,50.7
2019-05-07T07:25:48.553Z,50.89
2019-05-07T07:26:47.539Z,52.22
2019-05-07T07:27:48.228Z,52.8
2019-05-07T07:28:48.356Z,52.77
2019-05-07T07:29:52.327Z,52.32
2019-05-07T07:30:49.481Z,53.47
2019-05-07T07:31:52.561Z,53.06
2019-05-07T07:32:51.902Z,54.11
2019-05-07T07:33:52.581Z,53.99
2019-05-07T07:34:53.168Z,54.63
2019-05-07T07:35:53.018Z,55.87
2019-05-07T07:37:11.068Z,57.75
2019-05-07T07:37:54.835Z,57.82
2019-05-07T07:38:57.929Z,57.82
2019-05-07T07:39:57.951Z,57.82
2019-05-07T07:40:58.003Z,57.82
2019-05-07T07:41:57.549Z,59.44
2019-05-07T07:42:58.194Z,57.34
2019-05-07T07:43:58.518Z,58.87
2019-05-07T07:44:58.943Z,57.24
2019-05-07T07:46:01.976Z,56.96
2019-05-07T07:47:02.406Z,57.06
2019-05-07T07:48:02.220Z,58.04
2019-05-07T07:49:15.022Z,57.37
2019-05-07T07:50:02.277Z,57.92
2019-05-07T07:51:03.147Z,56.96
2019-05-07T07:52:03.433Z,56.84
2019-05-07T07:53:03.285Z,57.79
2019-05-07T07:54:03.694Z,57.31
2019-05-07T07:55:04.438Z,56.1
2019-05-07T07:56:05.310Z,55.75
2019-05-07T07:57:07.606Z,53.08
2019-05-07T07:58:08.028Z,52.98
2019-05-07T07:59:08.295Z,52.69
2019-05-07T08:00:11.718Z,51.26
2019-05-07T08:01:10.024Z,52.31
2019-05-07T08:02:09.280Z,52.34
2019-05-07T08:03:09.415Z,51.41
2019-05-07T08:04:12.219Z,50.45
2019-05-07T08:05:12.473Z,48.54
2019-05-07T08:06:11.930Z,49.02
2019-05-07T08:07:12.430Z,49.88
2019-05-07T08:08:12.778Z,49.52
2019-05-07T08:09:13.181Z,49.33
2019-05-07T08:10:14.958Z,50.33
2019-05-07T08:11:14.400Z,49.95
2019-05-07T08:12:15.008Z,50.04
2019-05-07T08:13:17.525Z,50.04
2019-05-07T08:14:17.957Z,48.73
2019-05-07T08:15:25.554Z,49.49
2019-05-07T08:16:18.581Z,48.47
2019-05-07T08:17:18.842Z,47.97
2019-05-07T08:18:19.027Z,49.59
2019-05-07T08:19:27.215Z,49.98
2019-05-07T08:20:21.930Z,50.07
2019-05-07T08:21:22.686Z,47.87
2019-05-07T08:22:22.533Z,48.99
2019-05-07T08:23:22.603Z,49.21
2019-05-07T08:24:23.047Z,50.64
2019-05-07T08:25:22.778Z,50.07
2019-05-07T08:26:22.902Z,48.54
2019-05-07T08:27:25.459Z,48.71
2019-05-07T08:28:24.339Z,50.12
2019-05-07T08:29:24.705Z,50.04
2019-05-07T08:30:28.470Z,50.33
2019-05-07T08:31:27.864Z,49.98
2019-05-07T08:32:27.766Z,49.02
2019-05-07T08:33:28.734Z,48.83
2019-05-07T08:34:27.219Z,46.08
2019-05-07T08:35:27.929Z,44.67
2019-05-07T08:36:28.357Z,44.4
2019-05-07T08:37:32.029Z,45.45
2019-05-07T08:38:30.022Z,43.92
2019-05-07T08:39:32.518Z,42.2
2019-05-07T08:40:29.843Z,41.8
2019-05-07T08:41:31.893Z,43.12
2019-05-07T08:42:32.001Z,43.06
2019-05-07T08:43:32.209Z,43.16
2019-05-07T08:44:32.497Z,41.82
2019-05-07T08:45:33.179Z,39.9
2019-05-07T08:46:32.864Z,40.59
2019-05-07T08:47:33.247Z,41.27
2019-05-07T08:48:33.373Z,41.48
2019-05-07T08:49:43.289Z,40.61
2019-05-07T08:50:33.888Z,39.48
2019-05-07T08:51:34.449Z,40.66
2019-05-07T08:52:34.873Z,38.56
2019-05-07T08:53:38.329Z,37.4
2019-05-07T08:54:38.186Z,36.51
2019-05-07T08:55:37.499Z,36.32
2019-05-07T08:56:37.492Z,36.22
2019-05-07T08:57:39.530Z,36.13
2019-05-07T08:58:38.223Z,37.34
2019-05-07T08:59:38.649Z,38.56
2019-05-07T09:00:41.760Z,38.85
2019-05-07T09:01:39.663Z,40.31
2019-05-07T09:02:41.906Z,39.47
2019-05-07T09:03:42.871Z,40.73
2019-05-07T09:04:41.815Z,38.91
2019-05-07T09:05:42.677Z,35.49
2019-05-07T09:06:44.348Z,35.19
2019-05-07T09:07:43.088Z,36.42
2019-05-07T09:08:43.743Z,36.8
2019-05-07T09:09:44.495Z,36.59
2019-05-07T09:10:48.553Z,34.79
2019-05-07T09:11:47.853Z,35.65
2019-05-07T09:12:48.503Z,36.9
2019-05-07T09:13:47.657Z,37.3
2019-05-07T09:14:48.856Z,37.6
2019-05-07T09:15:49.038Z,36.95
2019-05-07T09:16:49.239Z,34.84
2019-05-07T09:17:52.524Z,34.75
2019-05-07T09:18:52.369Z,36.93
2019-05-07T09:19:57.002Z,37.22
2019-05-07T09:20:52.714Z,35.51
2019-05-07T09:21:53.221Z,34.19
2019-05-07T09:22:53.632Z,35.36
2019-05-07T09:23:53.863Z,33.72
2019-05-07T09:24:54.593Z,35.06
2019-05-07T09:25:57.406Z,36.33
2019-05-07T09:26:57.651Z,35.57
2019-05-07T09:27:57.947Z,32.68
2019-05-07T09:28:57.620Z,33.31
2019-05-07T09:29:57.319Z,33.21
2019-05-07T09:30:59.288Z,33.51
2019-05-07T09:31:58.279Z,34.78
2019-05-07T09:32:58.716Z,34.49
2019-05-07T09:33:59.277Z,35.05
2019-05-07T09:35:02.244Z,35.03
2019-05-07T09:36:02.197Z,34.94
2019-05-07T09:37:02.348Z,35.69
2019-05-07T09:38:03.138Z,36.82
2019-05-07T09:39:05.736Z,37.38
2019-05-07T09:40:04.681Z,36.99
2019-05-07T09:41:04.945Z,36.79
2019-05-07T09:42:07.715Z,35.73
2019-05-07T09:43:07.968Z,37.55
2019-05-07T09:44:08.397Z,37.85
2019-05-07T09:45:07.520Z,37.38
2019-05-07T09:46:08.434Z,37.47
2019-05-07T09:47:07.929Z,37.66
2019-05-07T09:48:08.670Z,37.01
2019-05-07T09:49:08.885Z,36.82
2019-05-07T09:50:13.216Z,39.7
2019-05-07T09:51:09.637Z,37.4
2019-05-07T09:52:12.245Z,37.7
2019-05-07T09:53:12.697Z,39.06
2019-05-07T09:54:12.683Z,40.62
2019-05-07T09:55:23.292Z,37.35
2019-05-07T09:56:12.542Z,36.49
2019-05-07T09:57:31.478Z,35.55
2019-05-07T09:58:13.150Z,35.26
2019-05-07T09:59:14.185Z,35.74
2019-05-07T10:00:14.541Z,34.95
2019-05-07T10:01:14.971Z,34.19
2019-05-07T10:02:18.459Z,35.34
2019-05-07T10:03:17.823Z,34.19
2019-05-07T10:04:16.084Z,34.75
2019-05-07T10:05:16.242Z,34.92
2019-05-07T10:06:17.739Z,40.1
2019-05-07T10:07:18.360Z,40.12
2019-05-07T10:08:18.919Z,35.51
2019-05-07T10:09:18.432Z,36.47
2019-05-07T10:10:18.853Z,34.86
2019-05-07T10:11:19.383Z,35.89
2019-05-07T10:12:19.949Z,36.36
2019-05-07T10:13:20.166Z,36.74
2019-05-07T10:14:22.372Z,35.88
2019-05-07T10:15:22.536Z,36.84
2019-05-07T10:16:22.330Z,35.51
2019-05-07T10:17:23.033Z,35.53
2019-05-07T10:18:23.546Z,35.43
2019-05-07T10:19:24.696Z,33.82
2019-05-07T10:20:28.205Z,34.75
2019-05-07T10:21:27.361Z,36.26
2019-05-07T10:22:28.937Z,37.6
2019-05-07T10:23:29.421Z,37.24
2019-05-07T10:24:27.834Z,37.07
2019-05-07T10:25:28.300Z,36.8
2019-05-07T10:26:28.432Z,35.55
2019-05-07T10:27:29.073Z,34.49
2019-05-07T10:28:32.020Z,34.01
2019-05-07T10:29:32.191Z,34.94
2019-05-07T10:30:32.106Z,36.38
2019-05-07T10:31:31.998Z,35.49
2019-05-07T10:32:34.010Z,37.03
2019-05-07T10:33:32.985Z,38.01
2019-05-07T10:34:33.767Z,35.82
2019-05-07T10:35:38.305Z,34.09
2019-05-07T10:36:34.453Z,34.57
2019-05-07T10:37:37.017Z,36.58
2019-05-07T10:38:37.248Z,37.08
2019-05-07T10:39:37.855Z,33.64
2019-05-07T10:40:38.024Z,33.47
2019-05-07T10:41:37.628Z,34.53
2019-05-07T10:42:37.962Z,36.95
2019-05-07T10:43:38.468Z,36.66
2019-05-07T10:44:38.707Z,33.58
2019-05-07T10:45:39.289Z,33.02
2019-05-07T10:46:39.602Z,35.7
2019-05-07T10:47:41.715Z,36.58
2019-05-07T10:48:41.268Z,37.06
2019-05-07T10:49:42.195Z,32.06
2019-05-07T10:50:44.740Z,34.35
2019-05-07T10:51:42.513Z,34.54
2019-05-07T10:52:42.553Z,33.58
2019-05-07T10:53:43.013Z,35.5
2019-05-07T10:54:55.964Z,35.77
2019-05-07T10:55:45.650Z,36.74
2019-05-07T10:56:47.360Z,37.41
2019-05-07T10:57:47.913Z,35.39
2019-05-07T10:58:46.992Z,37.04
2019-05-07T10:59:47.764Z,33.75
2019-05-07T11:00:47.684Z,34.53
2019-05-07T11:01:48.099Z,34.91
2019-05-07T11:02:49.368Z,34.92
2019-05-07T11:03:49.236Z,33.28
2019-05-07T11:04:53.258Z,31.35
2019-05-07T11:05:52.765Z,32.28
2019-05-07T11:06:52.958Z,33.78
2019-05-07T11:07:53.991Z,33.96
2019-05-07T11:08:54.372Z,35
2019-05-07T11:09:54.590Z,34.71
2019-05-07T11:10:55.138Z,37.85
2019-05-07T11:11:57.428Z,37.78
2019-05-07T11:12:57.318Z,41.04
2019-05-07T11:14:01.898Z,44.59
2019-05-07T11:14:57.545Z,41.44
2019-05-07T11:15:57.968Z,39.53
2019-05-07T11:16:58.378Z,37.11
2019-05-07T11:17:59.502Z,36.4
2019-05-07T11:19:01.940Z,37.57
2019-05-07T11:20:00.722Z,37.74
2019-05-07T11:21:03.004Z,37.74
2019-05-07T11:22:02.563Z,38.12
2019-05-07T11:23:02.791Z,38.98
2019-05-07T11:24:03.473Z,39.56
2019-05-07T11:25:03.946Z,41.28
2019-05-07T11:26:07.862Z,39.58
2019-05-07T11:27:04.322Z,38.64
2019-05-07T11:28:05.024Z,36.82
2019-05-07T11:29:07.614Z,40.1
2019-05-07T11:30:08.271Z,40.77
2019-05-07T11:31:07.674Z,40.41
2019-05-07T11:32:07.104Z,38.79
2019-05-07T11:33:09.189Z,38.41
2019-05-07T11:34:08.332Z,38.24
2019-05-07T11:35:08.933Z,37.01
2019-05-07T11:36:10.363Z,36.33
2019-05-07T11:37:12.047Z,36.83
2019-05-07T11:38:25.036Z,35.68
2019-05-07T11:39:12.254Z,35.66
2019-05-07T11:40:13.066Z,35.66
2019-05-07T11:41:12.749Z,35.43
2019-05-07T11:42:12.684Z,35.8
2019-05-07T11:43:13.377Z,35.77
2019-05-07T11:44:13.940Z,37.3
2019-05-07T11:45:14.206Z,37.87
2019-05-07T11:46:14.663Z,39.31
2019-05-07T11:47:17.491Z,37.47
2019-05-07T11:48:18.439Z,37.93
2019-05-07T11:49:19.134Z,38.79
2019-05-07T11:50:22.455Z,43.49
2019-05-07T11:51:22.976Z,42.24
2019-05-07T11:52:22.733Z,41
2019-05-07T11:53:18.569Z,42.74
2019-05-07T11:54:19.551Z,40.54
2019-05-07T11:55:22.277Z,38.91
2019-05-07T11:56:21.970Z,39.65
2019-05-07T11:57:22.100Z,40.16
2019-05-07T11:58:21.951Z,41.86
2019-05-07T11:59:22.520Z,41
2019-05-07T12:00:22.949Z,39.56
2019-05-07T12:01:23.768Z,38.89
2019-05-07T12:02:25.391Z,38.89
2019-05-07T12:03:28.369Z,41.96
2019-05-07T12:04:27.821Z,42.63
2019-05-07T12:05:29.153Z,40.52
2019-05-07T12:06:27.583Z,41.28
2019-05-07T12:07:27.723Z,45.89
2019-05-07T12:08:48.189Z,43.3
2019-05-07T12:09:29.358Z,43.13
2019-05-07T12:10:30.016Z,42.17
2019-05-07T12:11:32.174Z,39.47
2019-05-07T12:12:32.554Z,42.82
2019-05-07T12:13:32.413Z,44.27
2019-05-07T12:14:36.963Z,44.27
2019-05-07T12:15:33.629Z,41.13
2019-05-07T12:16:33.971Z,39.7
2019-05-07T12:17:34.877Z,41.33
2019-05-07T12:18:37.581Z,39.79
2019-05-07T12:19:39.314Z,40.47
2019-05-07T12:20:38.029Z,38.45
2019-05-07T12:21:37.434Z,38.35
2019-05-07T12:22:37.628Z,40.84
2019-05-07T12:23:39.415Z,39.12
2019-05-07T12:24:38.193Z,39.77
2019-05-07T12:25:42.313Z,40.42
2019-05-07T12:26:41.392Z,42.14
2019-05-07T12:27:40.337Z,42.14
2019-05-07T12:28:41.805Z,42.07
2019-05-07T12:29:42.361Z,41.67
2019-05-07T12:30:42.793Z,41.31
2019-05-07T12:31:42.435Z,41.77
2019-05-07T12:32:42.754Z,44.54
2019-05-07T12:33:43.250Z,45.02
2019-05-07T12:34:43.676Z,43.41
2019-05-07T12:35:44.138Z,43.41
2019-05-07T12:36:46.683Z,41.04
2019-05-07T12:37:49.610Z,40.35
2019-05-07T12:38:47.921Z,40.54
2019-05-07T12:39:47.916Z,40.52
2019-05-07T12:40:47.532Z,41.38
2019-05-07T12:41:48.210Z,42.44
2019-05-07T12:42:52.382Z,39.94
2019-05-07T12:43:51.916Z,42.63
2019-05-07T12:44:51.722Z,44.16
2019-05-07T12:45:52.413Z,43.77
2019-05-07T12:46:52.575Z,42.74
2019-05-07T12:47:52.923Z,45.52
2019-05-07T12:48:53.161Z,44.95
2019-05-07T12:49:52.928Z,45.72
2019-05-07T12:50:52.441Z,46.19
2019-05-07T12:51:53.137Z,44.95
2019-05-07T12:52:54.117Z,43.9
2019-05-07T12:53:53.994Z,43.13
2019-05-07T12:54:54.433Z,43.8
2019-05-07T12:55:56.992Z,43.23
2019-05-07T12:56:57.286Z,43.03
2019-05-07T12:57:57.167Z,42.27
2019-05-07T12:58:57.378Z,42.74
2019-05-07T12:59:58.489Z,41.21
2019-05-07T13:00:58.209Z,40.83
2019-05-07T13:01:58.372Z,41.48
2019-05-07T13:02:59.417Z,44.35
2019-05-07T13:04:02.507Z,42.44